createdAt,value
2022-08-09T00:06:18.065Z,2.20
2022-08-09T00:10:32.101Z,2.73
2022-08-09T00:15:59.526Z,2.57
2022-08-09T00:21:09.053Z,2.50
2022-08-09T00:26:14.093Z,2.40
2022-08-09T00:31:57.505Z,2.83
2022-08-09T00:36:47.355Z,2.57
2022-08-09T00:44:19.391Z,2.50
2022-08-09T00:47:20.506Z,2.47
2022-08-09T00:52:30.060Z,2.63
2022-08-09T00:57:35.809Z,2.60
2022-08-09T01:02:49.759Z,2.33
2022-08-09T01:08:01.933Z,2.70
2022-08-09T01:13:16.895Z,2.87
2022-08-09T01:18:30.139Z,2.63
2022-08-09T01:24:03.190Z,3.20
2022-08-09T01:29:15.460Z,3.00
2022-08-09T01:34:24.634Z,2.70
2022-08-09T01:39:35.737Z,2.70
2022-08-09T01:44:44.772Z,2.20
2022-08-09T01:49:54.613Z,2.73
2022-08-09T01:55:02.337Z,2.53
2022-08-09T02:00:34.554Z,2.57
2022-08-09T02:06:03.271Z,2.80
2022-08-09T02:11:13.422Z,2.47
2022-08-09T02:16:33.813Z,3.00
2022-08-09T02:21:57.031Z,2.47
2022-08-09T02:27:07.295Z,2.57
2022-08-09T02:32:18.735Z,3.00
2022-08-09T02:37:31.482Z,2.90
2022-08-09T02:42:41.574Z,2.60
2022-08-09T02:47:59.151Z,2.73
2022-08-09T02:53:08.148Z,3.03
2022-08-09T02:58:32.589Z,2.80
2022-08-09T03:04:18.396Z,2.90
2022-08-09T03:09:11.929Z,3.63
2022-08-09T03:14:19.670Z,3.23
2022-08-09T03:19:57.775Z,2.83
2022-08-09T03:25:20.898Z,3.60
2022-08-09T03:30:33.378Z,3.10
2022-08-09T03:36:11.749Z,3.30
2022-08-09T03:41:07.194Z,3.07
2022-08-09T03:46:19.616Z,3.30
2022-08-09T03:51:55.979Z,3.30
2022-08-09T03:56:55.063Z,3.60
2022-08-09T04:02:03.963Z,3.60
2022-08-09T04:07:17.599Z,3.60
2022-08-09T04:12:41.388Z,3.30
2022-08-09T04:17:50.043Z,3.40
2022-08-09T04:22:59.720Z,3.80
2022-08-09T04:28:05.070Z,3.30
2022-08-09T04:33:10.578Z,3.40
2022-08-09T04:38:18.211Z,3.37
2022-08-09T04:43:25.297Z,3.00
2022-08-09T04:48:33.492Z,3.33
2022-08-09T04:53:41.303Z,2.93
2022-08-09T04:58:47.633Z,2.90
2022-08-09T05:03:58.710Z,2.80
2022-08-09T05:09:10.761Z,3.23
2022-08-09T05:14:17.429Z,3.00
2022-08-09T05:19:25.506Z,2.40
2022-08-09T05:24:33.822Z,2.97
2022-08-09T05:29:41.523Z,3.37
2022-08-09T05:34:46.540Z,2.30
2022-08-09T05:39:54.997Z,2.40
2022-08-09T05:45:01.183Z,1.90
2022-08-09T05:50:30.921Z,2.27
2022-08-09T05:55:35.211Z,2.00
2022-08-09T06:00:43.922Z,2.10
2022-08-09T06:05:54.672Z,2.13
2022-08-09T06:11:17.417Z,1.90
2022-08-09T06:16:23.558Z,2.00
2022-08-09T06:21:58.899Z,2.17
2022-08-09T06:27:03.620Z,2.30
2022-08-09T06:32:53.429Z,1.80
2022-08-09T06:37:53.364Z,1.83
2022-08-09T06:43:15.209Z,2.43
2022-08-09T06:48:30.093Z,2.87
2022-08-09T06:53:38.682Z,2.73
2022-08-09T07:00:49.735Z,1.70
2022-08-09T07:04:12.224Z,2.10
2022-08-09T07:09:54.873Z,2.13
2022-08-09T07:14:53.655Z,1.90
2022-08-09T07:19:58.740Z,1.90
2022-08-09T07:25:09.667Z,1.60
2022-08-09T07:30:18.295Z,2.97
2022-08-09T07:35:23.739Z,2.27
2022-08-09T07:40:46.206Z,1.67
2022-08-09T07:46:01.850Z,1.97
2022-08-09T07:52:03.706Z,1.70
2022-08-09T07:56:35.992Z,1.42
2022-08-09T08:01:52.931Z,1.55
2022-08-09T08:07:09.188Z,1.63
2022-08-09T08:12:27.751Z,1.42
2022-08-09T08:17:55.268Z,1.90
2022-08-09T08:23:16.737Z,0.95
2022-08-09T08:28:26.184Z,1.67
2022-08-09T08:33:52.268Z,1.77
2022-08-09T08:39:02.549Z,1.55
2022-08-09T08:44:07.688Z,1.50
2022-08-09T08:49:19.098Z,2.35
2022-08-09T08:54:28.145Z,1.27
2022-08-09T08:59:47.099Z,1.60
2022-08-09T09:04:57.825Z,1.50
2022-08-09T09:10:12.106Z,1.40
2022-08-09T09:15:28.307Z,1.67
2022-08-09T09:20:39.032Z,1.40
2022-08-09T09:26:03.274Z,1.70
2022-08-09T09:32:04.599Z,1.50
2022-08-09T09:36:54.053Z,1.63
2022-08-09T09:42:00.554Z,1.92
2022-08-09T09:47:10.945Z,1.55
2022-08-09T09:52:37.007Z,1.30
2022-08-09T09:58:02.984Z,1.90
2022-08-09T10:03:11.650Z,3.22
2022-08-09T10:08:27.904Z,1.83
2022-08-09T10:13:45.463Z,1.60
2022-08-09T10:19:02.912Z,1.30
2022-08-09T10:24:25.440Z,1.50
2022-08-09T10:30:30.076Z,2.17
2022-08-09T10:35:13.224Z,1.48
2022-08-09T10:40:32.518Z,1.40
2022-08-09T10:45:49.402Z,1.85
2022-08-09T10:51:18.331Z,1.92
2022-08-09T10:56:28.770Z,1.50
2022-08-09T11:03:17.972Z,1.50
2022-08-09T11:07:56.933Z,2.05
2022-08-09T11:13:50.296Z,1.60
2022-08-09T11:18:49.330Z,1.58
2022-08-09T11:24:13.598Z,1.55
2022-08-09T11:30:04.388Z,1.83
2022-08-09T11:35:19.824Z,1.50
2022-08-09T11:40:34.199Z,2.00
2022-08-09T11:45:43.680Z,1.40
2022-08-09T11:53:01.069Z,1.33
2022-08-09T11:56:42.484Z,2.05
2022-08-09T12:02:18.215Z,1.98
2022-08-09T12:07:21.010Z,1.70
2022-08-09T12:12:28.739Z,2.22
2022-08-09T12:17:44.556Z,1.95
2022-08-09T12:23:01.832Z,1.40
2022-08-09T12:29:00.253Z,2.00
2022-08-09T12:33:59.005Z,1.45
2022-08-09T12:39:20.513Z,2.03
2022-08-09T12:44:26.322Z,1.80
2022-08-09T12:49:52.915Z,1.58
2022-08-09T12:56:11.478Z,2.10
2022-08-09T13:00:29.604Z,1.80
2022-08-09T13:05:51.531Z,1.92
2022-08-09T13:11:23.144Z,1.70
2022-08-09T13:16:49.518Z,1.83
2022-08-09T13:22:37.083Z,1.80
2022-08-09T13:27:55.251Z,1.58
2022-08-09T13:33:02.786Z,2.35
2022-08-09T13:38:32.999Z,1.58
2022-08-09T13:43:40.586Z,2.53
2022-08-09T13:48:46.586Z,2.13
2022-08-09T13:53:53.605Z,1.80
2022-08-09T13:59:02.812Z,2.20
2022-08-09T14:04:11.623Z,2.40
2022-08-09T14:09:24.962Z,2.03
2022-08-09T14:14:37.058Z,1.92
2022-08-09T14:19:42.480Z,1.88
2022-08-09T14:24:54.096Z,1.88
2022-08-09T14:30:35.888Z,1.60
2022-08-09T14:35:27.948Z,2.35
2022-08-09T14:41:02.372Z,2.15
2022-08-09T14:46:46.158Z,2.03
2022-08-09T14:51:51.613Z,1.70
2022-08-09T14:57:03.638Z,2.17
2022-08-09T15:02:11.204Z,1.75
2022-08-09T15:07:17.518Z,1.98
2022-08-09T15:12:24.569Z,1.60
2022-08-09T15:17:41.482Z,2.17
2022-08-09T15:22:47.753Z,2.00
2022-08-09T15:27:56.519Z,3.35
2022-08-09T15:33:08.690Z,2.03
2022-08-09T15:38:21.521Z,2.00
2022-08-09T15:43:36.696Z,1.95
2022-08-09T15:48:52.874Z,2.20
2022-08-09T15:54:20.996Z,2.22
2022-08-09T15:59:37.065Z,2.00
2022-08-09T16:04:45.111Z,1.92
2022-08-09T16:10:04.195Z,1.73
2022-08-09T16:16:11.678Z,1.98
2022-08-09T16:20:41.692Z,1.60
2022-08-09T16:25:49.798Z,2.63
2022-08-09T16:30:58.693Z,1.90
2022-08-09T16:36:13.180Z,2.00
2022-08-09T16:42:02.171Z,2.20
2022-08-09T16:46:54.906Z,1.73
2022-08-09T16:52:10.058Z,2.20
2022-08-09T16:57:14.979Z,1.83
2022-08-09T17:02:23.304Z,2.10
2022-08-09T17:08:43.017Z,2.00
2022-08-09T17:12:58.251Z,1.80
2022-08-09T17:18:03.188Z,2.25
2022-08-09T17:23:14.772Z,1.98
2022-08-09T17:28:22.224Z,1.98
2022-08-09T17:33:29.308Z,2.03
2022-08-09T17:38:57.616Z,2.20
2022-08-09T17:44:47.154Z,2.03
2022-08-09T17:49:30.346Z,1.58
2022-08-09T17:54:38.438Z,1.60
2022-08-09T17:59:46.110Z,1.73
2022-08-09T18:05:16.778Z,1.90
2022-08-09T18:10:24.352Z,1.60
2022-08-09T18:16:05.477Z,2.05
2022-08-09T18:21:17.705Z,1.55
2022-08-09T18:26:26.648Z,2.10
2022-08-09T18:31:55.111Z,1.70
2022-08-09T18:36:57.223Z,1.92
2022-08-09T18:42:08.155Z,1.92
2022-08-09T18:47:23.389Z,2.10
2022-08-09T18:52:35.123Z,2.05
2022-08-09T18:57:44.859Z,2.53
2022-08-09T19:02:51.212Z,2.17
2022-08-09T19:08:09.747Z,2.42
2022-08-09T19:13:22.425Z,2.95
2022-08-09T19:18:45.602Z,2.83
2022-08-09T19:24:39.489Z,3.70
2022-08-09T19:29:20.797Z,3.97
2022-08-09T19:34:26.195Z,2.30
2022-08-09T19:40:02.801Z,2.60
2022-08-09T19:44:59.132Z,2.80
2022-08-09T19:50:07.640Z,4.10
2022-08-09T19:55:39.120Z,2.30
2022-08-09T20:00:57.091Z,2.00
2022-08-09T20:06:04.139Z,2.43
2022-08-09T20:11:09.138Z,3.43
2022-08-09T20:16:35.234Z,2.80
2022-08-09T20:21:57.021Z,3.03
2022-08-09T20:27:08.210Z,3.20
2022-08-09T20:32:42.075Z,3.00
2022-08-09T20:38:23.489Z,2.67
2022-08-09T20:43:17.997Z,2.67
2022-08-09T20:48:32.730Z,3.07
2022-08-09T20:53:39.075Z,4.50
2022-08-09T20:58:44.448Z,4.80
2022-08-09T21:05:49.266Z,3.87
2022-08-09T21:09:32.603Z,3.20
2022-08-09T21:14:46.136Z,3.20
2022-08-09T21:20:18.107Z,3.20
2022-08-09T21:25:38.163Z,3.00
2022-08-09T21:30:44.634Z,2.80
2022-08-09T21:35:52.893Z,2.80
2022-08-09T21:40:57.986Z,3.10
2022-08-09T21:46:03.978Z,2.70
2022-08-09T21:51:13.241Z,3.10
2022-08-09T21:56:43.552Z,2.67
2022-08-09T22:02:00.248Z,3.37
2022-08-09T22:07:09.771Z,3.53
2022-08-09T22:12:18.573Z,4.33
2022-08-09T22:17:23.993Z,3.67
2022-08-09T22:22:33.658Z,3.53
2022-08-09T22:27:38.881Z,3.77
2022-08-09T22:32:45.411Z,3.53
2022-08-09T22:38:07.163Z,3.87
2022-08-09T22:43:17.033Z,3.60
2022-08-09T22:48:38.386Z,3.40
2022-08-09T22:54:01.040Z,4.10
2022-08-09T22:59:56.800Z,4.17
2022-08-09T23:04:33.855Z,4.57
2022-08-09T23:09:46.886Z,5.40
2022-08-09T23:14:53.963Z,5.00
2022-08-09T23:20:06.388Z,4.30
2022-08-09T23:25:15.844Z,4.37
2022-08-09T23:30:21.553Z,4.07
2022-08-09T23:35:26.662Z,3.37
2022-08-09T23:40:34.285Z,4.00
2022-08-09T23:45:39.396Z,3.47
2022-08-09T23:50:44.527Z,3.40
2022-08-09T23:55:55.490Z,3.07
